Time;durP1;ratioP1;P1;durP2;ratioP2;P2;SDS_P1;SDS_P2;PMS_P1;PMS_P2;Temp;Humidity;BMP_temperature;BMP_pressure;BME280_temperature;BME280_humidity;BME280_pressure;Samples;Min_cycle;Max_cycle;Signal;HPM_P1;HPM_P2
2022/01/18 00:00:47;;;;;;;;;;;;;;;-8.82;62.34;96578.69;6346506;28;19946;-62
2022/01/18 00:03:50;;;;;;;;;;;;;;;-8.75;62.51;96585.53;6346398;28;19924;-62
2022/01/18 00:06:54;;;;;;;;;;;;;;;-8.66;62.64;96594.94;6346281;28;19923;-62
2022/01/18 00:09:55;;;;;;;;;;;;;;;-8.69;63.06;96587.25;6346224;28;19935;-62
2022/01/18 00:13:09;;;;;;;;;;;;;;;-8.63;63.10;96585.63;6346168;28;20334;-63
2022/01/18 00:16:37;;;;;;;;;;;;;;;-8.39;62.85;96578.91;6346245;28;19923;-62
2022/01/18 00:19:41;;;;;;;;;;;;;;;-8.46;63.59;96582.31;6346150;28;19924;-63
2022/01/18 00:22:44;;;;;;;;;;;;;;;-8.49;63.54;96582.25;6345951;28;19924;-62
2022/01/18 00:25:50;;;;;;;;;;;;;;;-8.52;63.58;96583.13;6346053;28;19927;-63
2022/01/18 00:28:56;;;;;;;;;;;;;;;-8.30;64.11;96578.91;6345376;28;19931;-62
2022/01/18 00:32:07;;;;;;;;;;;;;;;-8.07;63.19;96580.69;6346012;28;20293;-63
2022/01/18 00:35:11;;;;;;;;;;;;;;;-8.07;63.39;96585.81;6345858;28;19924;-63
2022/01/18 00:38:28;;;;;;;;;;;;;;;-7.73;62.19;96561.19;6345909;28;20304;-62
2022/01/18 00:41:28;;;;;;;;;;;;;;;-7.85;62.46;96571.41;6345339;28;19947;-64
2022/01/18 00:44:32;;;;;;;;;;;;;;;-7.75;62.28;96573.97;6345841;28;19924;-63
2022/01/18 00:47:33;;;;;;;;;;;;;;;-7.58;61.48;96583.38;6344972;28;20256;-63
2022/01/18 00:50:38;;;;;;;;;;;;;;;-7.69;61.72;96594.44;6345899;28;19924;-63
2022/01/18 00:53:41;;;;;;;;;;;;;;;-7.64;62.03;96608.91;6328576;28;20017;-62
2022/01/18 00:56:44;;;;;;;;;;;;;;;-7.60;61.67;96608.91;6350176;28;19923;-63
2022/01/18 00:59:47;;;;;;;;;;;;;;;-7.59;61.30;96599.53;6350493;28;20313;-62
2022/01/18 01:02:48;;;;;;;;;;;;;;;-7.64;61.39;96607.22;6350481;28;19928;-62
2022/01/18 01:05:52;;;;;;;;;;;;;;;-7.64;61.80;96611.44;6350384;28;19923;-63
2022/01/18 01:08:53;;;;;;;;;;;;;;;-7.82;61.87;96627.59;6349330;28;19924;-62
2022/01/18 01:11:54;;;;;;;;;;;;;;;-7.98;61.94;96631.78;6350239;28;19924;-63
2022/01/18 01:15:04;;;;;;;;;;;;;;;-8.05;62.52;96635.19;6350133;28;19924;-62
2022/01/18 01:34:41;;;;;;;;;;;;;;;-8.28;63.75;96628.28;6349838;28;19973;-63
2022/01/18 01:44:46;;;;;;;;;;;;;;;-8.00;63.23;96659.03;6349668;28;19923;-63
2022/01/18 01:47:51;;;;;;;;;;;;;;;-8.07;63.22;96652.19;6348797;28;19923;-63
2022/01/18 01:51:02;;;;;;;;;;;;;;;-8.15;63.85;96644.50;6349364;28;20355;-64
2022/01/18 01:54:08;;;;;;;;;;;;;;;-8.10;63.90;96647.06;6348360;28;20413;-63
2022/01/18 01:57:09;;;;;;;;;;;;;;;-8.16;64.37;96656.41;6349357;28;20018;-63
2022/01/18 02:00:15;;;;;;;;;;;;;;;-8.05;63.21;96663.25;6349101;28;19930;-63
2022/01/18 02:03:16;;;;;;;;;;;;;;;-8.26;63.94;96664.88;6348403;28;19924;-63
2022/01/18 02:06:21;;;;;;;;;;;;;;;-8.25;63.61;96653.81;6348238;28;19970;-63
2022/01/18 02:09:22;;;;;;;;;;;;;;;-8.48;62.93;96651.16;6348260;28;19924;-63
2022/01/18 02:12:23;;;;;;;;;;;;;;;-8.71;63.59;96653.59;6348392;28;19923;-62
2022/01/18 02:15:25;;;;;;;;;;;;;;;-8.88;64.41;96650.06;6348607;28;19924;-62
2022/01/18 02:21:50;;;;;;;;;;;;;;;-8.87;65.44;96664.50;6348465;28;19927;-63
2022/01/18 02:24:54;;;;;;;;;;;;;;;-8.96;65.67;96660.19;6348731;28;19923;-63
2022/01/18 02:27:55;;;;;;;;;;;;;;;-8.83;65.47;96666.22;6347188;28;20290;-63
2022/01/18 02:30:59;;;;;;;;;;;;;;;-8.70;65.39;96662.94;6348028;28;20313;-63
2022/01/18 02:34:03;;;;;;;;;;;;;;;-8.94;65.82;96655.13;6348261;28;19928;-63
2022/01/18 02:37:04;;;;;;;;;;;;;;;-9.15;67.28;96664.28;6348112;28;19924;-62
2022/01/18 02:40:06;;;;;;;;;;;;;;;-8.97;66.93;96658.50;6347858;28;19924;-63
2022/01/18 02:46:27;;;;;;;;;;;;;;;-8.73;66.33;96665.47;6347827;28;19973;-63
2022/01/18 02:49:31;;;;;;;;;;;;;;;-8.57;66.26;96665.56;6347682;28;19953;-63
2022/01/18 02:52:32;;;;;;;;;;;;;;;-8.37;65.93;96663.97;6347343;28;19923;-64
2022/01/18 02:55:33;;;;;;;;;;;;;;;-8.27;65.27;96665.69;6347243;28;20308;-63
2022/01/18 02:58:36;;;;;;;;;;;;;;;-8.22;65.23;96674.25;6347439;28;19924;-62
2022/01/18 03:04:59;;;;;;;;;;;;;;;-8.07;64.31;96663.25;6346565;28;19934;-61
2022/01/18 03:08:00;;;;;;;;;;;;;;;-8.05;64.21;96665.81;6346248;28;19978;-62
2022/01/18 03:11:03;;;;;;;;;;;;;;;-7.97;63.37;96659.03;6346902;28;19923;-62
2022/01/18 03:14:05;;;;;;;;;;;;;;;-7.96;63.21;96668.41;6346680;28;19938;-63
2022/01/18 03:17:06;;;;;;;;;;;;;;;-8.02;63.95;96655.63;6346562;28;19924;-63
2022/01/18 03:20:11;;;;;;;;;;;;;;;-8.01;63.92;96657.31;6346614;28;19923;-63
2022/01/18 03:23:18;;;;;;;;;;;;;;;-8.07;63.22;96667.50;6346988;28;19920;-63
2022/01/18 03:26:19;;;;;;;;;;;;;;;-8.06;63.83;96685.41;6346420;28;19924;-63
2022/01/18 03:29:20;;;;;;;;;;;;;;;-8.27;64.46;96678.47;6346244;28;20048;-63
2022/01/18 03:32:23;;;;;;;;;;;;;;;-8.10;63.96;96682.81;6346520;28;19923;-62
2022/01/18 03:35:24;;;;;;;;;;;;;;;-8.19;64.16;96688.72;6346610;28;19932;-63
2022/01/18 03:38:29;;;;;;;;;;;;;;;-8.24;64.30;96686.13;6346052;28;19923;-62
2022/01/18 03:41:33;;;;;;;;;;;;;;;-8.44;64.31;96682.66;6345847;28;19949;-62
2022/01/18 03:44:34;;;;;;;;;;;;;;;-8.32;63.87;96682.72;6346295;28;20393;-62
2022/01/18 03:47:37;;;;;;;;;;;;;;;-8.34;64.09;96683.53;6346407;28;20403;-62
2022/01/18 03:50:41;;;;;;;;;;;;;;;-8.35;63.46;96687.78;6345847;28;19923;-62
2022/01/18 03:53:42;;;;;;;;;;;;;;;-8.28;62.95;96699.72;6345405;28;19924;-63
2022/01/18 03:56:45;;;;;;;;;;;;;;;-8.44;63.09;96687.75;6345099;28;20065;-62
2022/01/18 03:59:47;;;;;;;;;;;;;;;-8.41;63.55;96697.97;6345699;28;20015;-62
2022/01/18 04:02:49;;;;;;;;;;;;;;;-8.32;62.37;96710.78;6345985;28;19932;-62
2022/01/18 04:05:52;;;;;;;;;;;;;;;-8.34;62.41;96709.91;6346578;28;20274;-63
2022/01/18 04:08:53;;;;;;;;;;;;;;;-8.43;62.46;96700.53;6344411;28;19924;-63
2022/01/18 04:11:54;;;;;;;;;;;;;;;-8.45;62.39;96716.69;6345381;28;19923;-63
2022/01/18 04:14:55;;;;;;;;;;;;;;;-8.60;63.16;96727.63;6345383;28;20397;-63
2022/01/18 04:27:51;;;;;;;;;;;;;;;-8.67;63.17;96724.16;6344951;28;20389;-63
2022/01/18 04:30:54;;;;;;;;;;;;;;;-8.47;63.01;96718.34;6350926;28;19920;-64
2022/01/18 04:33:58;;;;;;;;;;;;;;;-8.48;62.54;96716.66;6350521;28;19923;-62
2022/01/18 04:37:01;;;;;;;;;;;;;;;-8.30;62.52;96726.94;6350443;28;19930;-62
2022/01/18 04:40:12;;;;;;;;;;;;;;;-8.06;61.66;96730.50;6351019;28;19923;-63
2022/01/18 04:43:38;;;;;;;;;;;;;;;-7.91;60.97;96725.47;6350821;28;19924;-62
2022/01/18 04:50:01;;;;;;;;;;;;;;;-7.67;61.21;96729.84;6350109;28;19931;-62
2022/01/18 04:53:03;;;;;;;;;;;;;;;-7.59;60.72;96732.41;6349780;28;19931;-62
2022/01/18 04:56:08;;;;;;;;;;;;;;;-7.47;60.43;96737.59;6349367;28;19923;-62
2022/01/18 04:59:10;;;;;;;;;;;;;;;-7.40;59.96;96749.50;6350558;28;19924;-63
2022/01/18 05:02:11;;;;;;;;;;;;;;;-7.31;59.39;96743.56;6350257;28;20492;-63
2022/01/18 05:05:21;;;;;;;;;;;;;;;-7.30;59.70;96748.72;6332203;28;19960;-63
2022/01/18 05:08:23;;;;;;;;;;;;;;;-7.32;59.30;96759.78;6350164;28;19930;-63
2022/01/18 05:11:27;;;;;;;;;;;;;;;-7.27;59.37;96769.16;6349075;28;19923;-63
2022/01/18 05:14:33;;;;;;;;;;;;;;;-7.27;59.66;96765.75;6350224;28;19924;-64
2022/01/18 05:17:56;;;;;;;;;;;;;;;-7.29;59.51;96752.97;6349891;28;19926;-64
2022/01/18 05:24:11;;;;;;;;;;;;;;;-7.38;59.02;96758.06;6331909;28;19924;-62
2022/01/18 05:27:12;;;;;;;;;;;;;;;-7.40;59.41;96749.50;6349164;28;19923;-63
2022/01/18 05:30:13;;;;;;;;;;;;;;;-7.50;59.80;96743.53;6349015;28;20416;-63
2022/01/18 05:33:14;;;;;;;;;;;;;;;-7.43;59.76;96749.50;6348514;28;19923;-62
2022/01/18 05:36:15;;;;;;;;;;;;;;;-7.35;59.00;96765.72;6348446;28;19923;-62
2022/01/18 05:39:17;;;;;;;;;;;;;;;-7.35;59.56;96764.88;6349111;28;19930;-63
2022/01/18 05:42:23;;;;;;;;;;;;;;;-7.39;59.26;96776.78;6349477;28;19924;-63
2022/01/18 05:45:26;;;;;;;;;;;;;;;-7.47;59.46;96783.59;6349608;28;19923;-63
2022/01/18 05:48:27;;;;;;;;;;;;;;;-7.53;58.99;96791.19;6349216;28;20423;-63
2022/01/18 05:51:31;;;;;;;;;;;;;;;-7.49;59.24;96800.59;6348785;28;19924;-64
2022/01/18 05:54:32;;;;;;;;;;;;;;;-7.55;59.16;96792.91;6349321;28;19930;-62
2022/01/18 05:57:38;;;;;;;;;;;;;;;-7.30;58.71;96792.16;6349057;28;19924;-63
2022/01/18 06:00:41;;;;;;;;;;;;;;;-7.38;58.72;96796.38;6348298;28;19928;-63
2022/01/18 06:04:06;;;;;;;;;;;;;;;-7.19;58.20;96804.09;6348366;28;19988;-63
2022/01/18 06:07:08;;;;;;;;;;;;;;;-7.11;58.01;96805.00;6348850;28;19923;-63
2022/01/18 06:10:09;;;;;;;;;;;;;;;-7.11;57.81;96798.16;6348833;28;19920;-63
2022/01/18 06:13:12;;;;;;;;;;;;;;;-6.97;56.92;96811.00;6330367;28;19931;-63
2022/01/18 06:16:13;;;;;;;;;;;;;;;-6.94;56.95;96811.00;6348559;28;19924;-63
2022/01/18 06:19:14;;;;;;;;;;;;;;;-6.79;56.27;96805.94;6348786;28;19924;-63
2022/01/18 06:22:16;;;;;;;;;;;;;;;-6.66;56.10;96811.91;6348582;28;20026;-63
2022/01/18 06:25:19;;;;;;;;;;;;;;;-6.36;55.94;96821.34;6348416;28;19924;-63
2022/01/18 06:28:21;;;;;;;;;;;;;;;-6.06;55.33;96818.78;6347443;28;20309;-63
2022/01/18 06:31:22;;;;;;;;;;;;;;;-5.80;53.79;96827.28;6330395;28;19931;-63
2022/01/18 06:34:23;;;;;;;;;;;;;;;-5.49;53.92;96833.19;6347338;28;20392;-63
2022/01/18 06:37:24;;;;;;;;;;;;;;;-5.06;52.10;96832.19;6347173;28;19927;-62
2022/01/18 06:40:26;;;;;;;;;;;;;;;-5.12;51.81;96833.06;6348192;28;19931;-63
2022/01/18 06:43:30;;;;;;;;;;;;;;;-4.95;51.22;96840.69;6347821;28;19923;-63
2022/01/18 06:46:31;;;;;;;;;;;;;;;-4.65;51.12;96855.06;6347834;28;19946;-63
2022/01/18 06:49:32;;;;;;;;;;;;;;;-4.24;49.77;96856.53;6347122;28;19924;-64
2022/01/18 06:52:33;;;;;;;;;;;;;;;-4.19;48.89;96853.91;6346625;28;19967;-64
2022/01/18 06:55:34;;;;;;;;;;;;;;;-4.32;49.45;96853.16;6347689;28;20332;-62
2022/01/18 06:58:35;;;;;;;;;;;;;;;-4.43;49.96;96839.53;6347139;28;19967;-62
2022/01/18 07:01:38;;;;;;;;;;;;;;;-4.33;50.09;96847.19;6347446;28;20018;-63
2022/01/18 07:04:40;;;;;;;;;;;;;;;-4.21;49.89;96835.97;6346308;28;20281;-63
2022/01/18 07:07:42;;;;;;;;;;;;;;;-3.71;48.85;96849.25;6347250;28;19930;-63
2022/01/18 07:10:45;;;;;;;;;;;;;;;-2.81;47.61;96837.97;6347348;28;19928;-63
2022/01/18 07:13:46;;;;;;;;;;;;;;;-2.53;46.45;96832.44;6347278;28;20290;-62
2022/01/18 07:16:50;;;;;;;;;;;;;;;-3.01;46.60;96824.50;6346216;28;19946;-63
2022/01/18 07:19:51;;;;;;;;;;;;;;;-3.85;48.39;96833.94;6346966;28;19931;-63
2022/01/18 07:22:54;;;;;;;;;;;;;;;-4.35;49.79;96822.38;6347047;28;20328;-63
2022/01/18 07:25:55;;;;;;;;;;;;;;;-4.67;50.76;96814.84;6346165;28;19924;-62
2022/01/18 07:29:01;;;;;;;;;;;;;;;-4.92;51.32;96819.31;6346912;28;19927;-62
2022/01/18 07:32:02;;;;;;;;;;;;;;;-4.93;51.34;96787.63;6346109;28;19930;-62
2022/01/18 07:35:09;;;;;;;;;;;;;;;-5.02;52.30;96801.34;6345845;28;19931;-63
2022/01/18 07:38:16;;;;;;;;;;;;;;;-5.33;52.48;96799.78;6346598;28;20396;-63
2022/01/18 07:41:17;;;;;;;;;;;;;;;-5.46;53.32;96807.53;6345770;28;19924;-63
2022/01/18 07:44:18;;;;;;;;;;;;;;;-5.51;54.20;96814.38;6345672;28;19928;-64
2022/01/18 07:47:22;;;;;;;;;;;;;;;-5.39;53.08;96825.47;6328589;28;20282;-63
2022/01/18 07:50:24;;;;;;;;;;;;;;;-5.53;53.19;96825.50;6310676;28;19930;-63
2022/01/18 07:53:25;;;;;;;;;;;;;;;-5.29;53.06;96829.72;6345144;28;20282;-63
2022/01/18 07:56:27;;;;;;;;;;;;;;;-5.03;52.67;96838.16;6346299;28;19977;-63
2022/01/18 07:59:28;;;;;;;;;;;;;;;-4.72;52.02;96853.41;6346434;28;20069;-63
2022/01/18 08:02:31;;;;;;;;;;;;;;;-4.77;52.03;96850.00;6345431;28;19920;-63
2022/01/18 08:05:32;;;;;;;;;;;;;;;-4.65;51.64;96834.53;6346100;28;19923;-63
2022/01/18 08:08:39;;;;;;;;;;;;;;;-4.62;51.81;96849.06;6346136;28;19924;-64
2022/01/18 08:11:40;;;;;;;;;;;;;;;-4.65;51.81;96852.50;6346043;28;20300;-63
2022/01/18 08:14:46;;;;;;;;;;;;;;;-4.69;51.84;96853.41;6346056;28;19930;-63
2022/01/18 08:17:48;;;;;;;;;;;;;;;-4.63;52.04;96835.38;6344980;28;20007;-62
2022/01/18 08:20:51;;;;;;;;;;;;;;;-4.56;51.61;96846.47;6345974;28;20316;-63
2022/01/18 08:23:57;;;;;;;;;;;;;;;-4.36;51.07;96843.75;6346131;28;20419;-63
2022/01/18 08:26:58;;;;;;;;;;;;;;;-4.11;50.92;96844.44;6345460;28;20308;-63
2022/01/18 08:30:03;;;;;;;;;;;;;;;-2.97;48.44;96862.22;6345781;28;19927;-63
2022/01/18 08:33:07;;;;;;;;;;;;;;;-2.08;45.89;96866.16;6345986;28;20014;-63
2022/01/18 08:36:12;;;;;;;;;;;;;;;-2.14;45.64;96861.94;6345764;28;19923;-63
2022/01/18 08:39:13;;;;;;;;;;;;;;;-2.46;46.79;96862.44;6344747;28;20418;-63
2022/01/18 08:42:14;;;;;;;;;;;;;;;-1.72;45.06;96853.56;6345006;28;20415;-63
2022/01/18 08:45:15;;;;;;;;;;;;;;;-0.66;43.33;96846.41;6344832;28;19924;-63
2022/01/18 08:48:17;;;;;;;;;;;;;;;-0.35;41.66;96854.34;6344272;28;19947;-63
2022/01/18 08:51:18;;;;;;;;;;;;;;;-0.37;40.87;96861.28;6344765;28;19930;-63
2022/01/18 08:54:22;;;;;;;;;;;;;;;-1.47;42.88;96854.84;6345538;28;20014;-64
2022/01/18 08:57:25;;;;;;;;;;;;;;;-2.38;45.35;96868.28;6345436;28;20397;-64
2022/01/18 09:00:26;;;;;;;;;;;;;;;-2.65;45.90;96868.69;6344646;28;19970;-64
2022/01/18 09:03:27;;;;;;;;;;;;;;;-2.82;46.90;96877.47;6343813;28;19967;-63
2022/01/18 09:06:30;;;;;;;;;;;;;;;-3.01;47.51;96875.97;6345378;28;19946;-62
2022/01/18 09:09:38;;;;;;;;;;;;;;;-3.48;48.65;96869.59;6345713;28;19924;-63
2022/01/18 09:12:39;;;;;;;;;;;;;;;-3.16;48.76;96859.84;6345493;28;19931;-63
2022/01/18 09:15:41;;;;;;;;;;;;;;;-3.15;48.59;96865.84;6347994;28;19924;-63
2022/01/18 09:18:45;;;;;;;;;;;;;;;-2.81;48.57;96860.28;6350200;28;20010;-63
2022/01/18 09:21:50;;;;;;;;;;;;;;;-1.63;45.90;96858.56;6349624;28;19923;-63
2022/01/18 09:24:51;;;;;;;;;;;;;;;-0.65;43.21;96867.06;6348946;28;19923;-64
2022/01/18 09:27:53;;;;;;;;;;;;;;;-0.12;42.02;96851.25;6331095;28;20068;-63
2022/01/18 09:30:56;;;;;;;;;;;;;;;0.67;40.27;96854.47;6349852;28;19940;-63
2022/01/18 09:33:57;;;;;;;;;;;;;;;1.22;38.81;96857.31;6349428;28;19931;-62
2022/01/18 09:37:01;;;;;;;;;;;;;;;1.61;38.48;96851.88;6349584;28;20309;-62
2022/01/18 09:40:05;;;;;;;;;;;;;;;1.63;38.22;96857.03;6349333;28;20010;-63
2022/01/18 09:43:12;;;;;;;;;;;;;;;1.55;38.35;96859.81;6349313;28;19927;-63
2022/01/18 09:46:16;;;;;;;;;;;;;;;1.65;37.48;96860.44;6349242;28;19924;-63
2022/01/18 09:49:19;;;;;;;;;;;;;;;1.52;37.96;96865.09;6349187;28;19919;-63
2022/01/18 09:52:20;;;;;;;;;;;;;;;1.38;38.10;96862.06;6348314;28;19924;-63
2022/01/18 09:55:23;;;;;;;;;;;;;;;1.10;38.62;96857.66;6348672;28;20006;-63
2022/01/18 09:58:24;;;;;;;;;;;;;;;0.65;39.22;96856.28;6348842;28;19931;-64
2022/01/18 10:01:25;;;;;;;;;;;;;;;0.47;39.89;96874.00;6349211;28;20012;-63
2022/01/18 10:04:37;;;;;;;;;;;;;;;0.17;40.84;96874.72;6348788;28;20014;-63
2022/01/18 10:07:38;;;;;;;;;;;;;;;0.24;40.31;96872.81;6348692;28;19931;-63
2022/01/18 10:10:42;;;;;;;;;;;;;;;0.20;40.27;96871.22;6348660;28;19927;-62
2022/01/18 10:13:49;;;;;;;;;;;;;;;-0.26;41.11;96864.47;6348415;28;19924;-64
2022/01/18 10:16:50;;;;;;;;;;;;;;;-0.29;41.23;96874.91;6347731;28;19923;-63
2022/01/18 10:19:51;;;;;;;;;;;;;;;-0.07;41.15;96886.47;6348404;28;20404;-63
2022/01/18 10:22:55;;;;;;;;;;;;;;;0.14;40.33;96892.03;6348434;28;20317;-62
2022/01/18 10:26:13;;;;;;;;;;;;;;;-0.01;40.78;96899.25;6346921;28;20413;-63
2022/01/18 10:29:15;;;;;;;;;;;;;;;-0.73;41.65;96894.78;6347235;28;20534;-63
2022/01/18 10:32:26;;;;;;;;;;;;;;;-1.03;42.74;96902.22;6347234;28;19923;-62
2022/01/18 10:35:29;;;;;;;;;;;;;;;-2.00;44.64;96905.59;6347828;28;20036;-63
2022/01/18 10:38:31;;;;;;;;;;;;;;;-2.60;46.09;96908.13;6346343;28;19923;-64
2022/01/18 10:41:33;;;;;;;;;;;;;;;-3.50;48.27;96899.66;6347893;28;19934;-64
2022/01/18 10:44:37;;;;;;;;;;;;;;;-4.02;50.22;96910.34;6346632;28;20312;-64
2022/01/18 10:47:46;;;;;;;;;;;;;;;-4.44;51.20;96910.59;6347727;28;19923;-64
2022/01/18 10:50:47;;;;;;;;;;;;;;;-4.70;52.24;96908.16;6347208;28;19931;-64
2022/01/18 10:53:59;;;;;;;;;;;;;;;-5.21;53.78;96915.16;6347786;28;19931;-64
2022/01/18 10:57:03;;;;;;;;;;;;;;;-5.59;54.77;96918.66;6347567;28;19923;-64
2022/01/18 11:00:09;;;;;;;;;;;;;;;-5.67;55.53;96918.66;6347633;28;19924;-63
2022/01/18 11:03:10;;;;;;;;;;;;;;;-6.06;56.66;96931.47;6346878;28;19959;-64
2022/01/18 11:06:17;;;;;;;;;;;;;;;-6.11;57.52;96927.22;6347474;28;19924;-64
2022/01/18 11:09:18;;;;;;;;;;;;;;;-6.30;58.18;96932.31;6346566;28;19923;-63
2022/01/18 11:12:23;;;;;;;;;;;;;;;-6.40;58.54;96932.25;6346799;28;19924;-63
2022/01/18 11:15:26;;;;;;;;;;;;;;;-6.63;59.40;96939.03;6346482;28;19945;-64
2022/01/18 11:18:30;;;;;;;;;;;;;;;-6.59;59.51;96935.66;6346798;28;19926;-64
2022/01/18 11:21:34;;;;;;;;;;;;;;;-6.68;60.02;96940.72;6347173;28;20389;-64
2022/01/18 11:24:40;;;;;;;;;;;;;;;-6.79;60.51;96949.22;6346783;28;19927;-63
2022/01/18 11:27:47;;;;;;;;;;;;;;;-6.99;61.32;96940.59;6345642;28;19945;-63
2022/01/18 11:30:50;;;;;;;;;;;;;;;-7.11;61.13;96945.63;6345595;28;20290;-64
2022/01/18 11:33:58;;;;;;;;;;;;;;;-7.28;61.83;96943.84;6328726;28;20397;-63
2022/01/18 11:37:21;;;;;;;;;;;;;;;-7.33;62.91;96945.53;6346022;28;20419;-64
2022/01/18 11:40:25;;;;;;;;;;;;;;;-7.49;63.58;96948.81;6346451;28;19923;-63
2022/01/18 11:43:33;;;;;;;;;;;;;;;-7.65;64.39;96937.63;6345113;28;20069;-64
2022/01/18 11:46:36;;;;;;;;;;;;;;;-7.52;64.91;96948.81;6345394;28;20483;-64
2022/01/18 11:49:44;;;;;;;;;;;;;;;-7.66;64.86;96942.75;6345445;28;19930;-63
2022/01/18 11:52:47;;;;;;;;;;;;;;;-7.70;65.67;96955.50;6345567;28;19923;-63
2022/01/18 11:55:49;;;;;;;;;;;;;;;-7.76;66.03;96947.75;6345534;28;19924;-64
2022/01/18 11:59:09;;;;;;;;;;;;;;;-7.79;66.72;96960.50;6345492;28;20308;-65
2022/01/18 12:02:10;;;;;;;;;;;;;;;-7.82;66.77;96950.25;6346130;28;20383;-65
2022/01/18 12:05:22;;;;;;;;;;;;;;;-7.84;66.97;96951.97;6345836;28;19931;-64
2022/01/18 12:08:29;;;;;;;;;;;;;;;-7.88;67.54;96968.09;6345972;28;20290;-64
2022/01/18 12:11:36;;;;;;;;;;;;;;;-7.93;67.32;96959.53;6345800;28;19923;-64
2022/01/18 12:14:43;;;;;;;;;;;;;;;-7.98;67.38;96969.72;6345666;28;19931;-64
2022/01/18 12:17:47;;;;;;;;;;;;;;;-8.02;68.32;96970.53;6344979;28;20381;-64
2022/01/18 12:20:53;;;;;;;;;;;;;;;-8.02;67.95;96959.47;6346042;28;19924;-64
2022/01/18 12:23:56;;;;;;;;;;;;;;;-7.99;68.31;96967.16;6344813;28;20408;-64
2022/01/18 12:27:03;;;;;;;;;;;;;;;-8.00;68.08;96971.41;6344352;28;19924;-64
2022/01/18 12:33:51;;;;;;;;;;;;;;;-8.13;68.41;96978.06;6331600;28;19923;-64
2022/01/18 12:36:53;;;;;;;;;;;;;;;-8.18;68.86;96969.53;6344245;28;19947;-64
2022/01/18 12:46:16;;;;;;;;;;;;;;;-8.26;69.27;96983.06;6345361;28;19923;-64
2022/01/18 12:49:18;;;;;;;;;;;;;;;-8.25;69.41;96970.31;6346416;28;20397;-63
2022/01/18 12:52:19;;;;;;;;;;;;;;;-8.33;69.48;96982.13;6349651;28;19963;-63
2022/01/18 12:55:35;;;;;;;;;;;;;;;-8.33;69.39;96973.63;6350326;28;19928;-66
2022/01/18 12:58:45;;;;;;;;;;;;;;;-8.45;69.25;96972.69;6350219;28;19923;-64
2022/01/18 13:01:50;;;;;;;;;;;;;;;-8.42;69.57;96992.28;6349824;28;19969;-63
2022/01/18 13:05:00;;;;;;;;;;;;;;;-8.48;69.84;96987.13;6349278;28;19931;-64
2022/01/18 13:08:03;;;;;;;;;;;;;;;-8.41;69.43;96986.31;6349269;28;20068;-63
2022/01/18 13:11:06;;;;;;;;;;;;;;;-8.43;69.52;96978.66;6349979;28;19924;-63
2022/01/18 13:14:12;;;;;;;;;;;;;;;-8.47;69.91;96983.72;6350035;28;20265;-63
2022/01/18 13:27:12;;;;;;;;;;;;;;;-8.54;70.08;96993.00;6349367;28;20424;-63
2022/01/18 13:30:20;;;;;;;;;;;;;;;-8.50;70.27;96993.88;6331697;28;19920;-64
2022/01/18 13:33:21;;;;;;;;;;;;;;;-8.61;70.39;96992.06;6348524;28;19954;-63
2022/01/18 13:36:22;;;;;;;;;;;;;;;-8.89;70.54;96990.00;6330536;28;19923;-64
2022/01/18 13:39:28;;;;;;;;;;;;;;;-8.88;71.20;96996.84;6348662;28;19924;-65
2022/01/18 13:42:35;;;;;;;;;;;;;;;-8.82;70.77;97007.09;6349793;28;19931;-64
2022/01/18 13:45:39;;;;;;;;;;;;;;;-9.02;71.10;97013.63;6348705;28;19923;-62
2022/01/18 13:48:42;;;;;;;;;;;;;;;-8.96;71.32;97008.63;6349273;28;20312;-63
2022/01/18 13:52:24;;;;;;;;;;;;;;;-9.09;71.74;97017.78;6348524;28;19993;-63
2022/01/18 13:55:30;;;;;;;;;;;;;;;-8.79;70.95;97012.25;6246103;28;20023;-64
2022/01/18 13:58:37;;;;;;;;;;;;;;;-9.09;70.86;97013.53;6244631;28;19932;-66
2022/01/18 14:01:41;;;;;;;;;;;;;;;-9.00;71.01;97011.94;6347428;28;19923;-65
2022/01/18 14:04:42;;;;;;;;;;;;;;;-9.00;70.64;97011.94;6347691;28;19920;-65
2022/01/18 14:07:43;;;;;;;;;;;;;;;-8.86;70.92;97015.53;6348457;28;19930;-64
2022/01/18 14:10:58;;;;;;;;;;;;;;;-8.78;69.68;97013.09;6348787;28;19955;-64
2022/01/18 14:14:13;;;;;;;;;;;;;;;-8.53;69.57;97012.56;6347942;28;20411;-64
2022/01/18 14:17:18;;;;;;;;;;;;;;;-8.43;68.37;97021.19;6348428;28;19931;-64
2022/01/18 14:20:19;;;;;;;;;;;;;;;-8.46;68.79;97016.06;6347575;28;19928;-64
2022/01/18 14:23:20;;;;;;;;;;;;;;;-8.45;68.07;97008.41;6347775;28;19924;-64
2022/01/18 14:26:21;;;;;;;;;;;;;;;-8.69;68.46;97009.00;6347689;28;19930;-64
2022/01/18 14:29:45;;;;;;;;;;;;;;;-8.62;68.75;97020.09;6348168;28;19924;-64
2022/01/18 14:32:48;;;;;;;;;;;;;;;-8.50;68.98;97010.03;6346244;28;19943;-64
2022/01/18 14:35:52;;;;;;;;;;;;;;;-8.33;68.26;97022.97;6347954;28;19923;-64
2022/01/18 14:39:09;;;;;;;;;;;;;;;-8.52;68.21;97010.84;6348012;28;20013;-63
2022/01/18 14:42:12;;;;;;;;;;;;;;;-8.50;68.38;97010.03;6347667;28;19924;-63
2022/01/18 14:48:17;;;;;;;;;;;;;;;-8.46;67.78;97016.06;6347810;28;20037;-63
2022/01/18 14:51:18;;;;;;;;;;;;;;;-8.49;67.71;97011.78;6347224;28;19978;-64
2022/01/18 14:54:19;;;;;;;;;;;;;;;-8.56;68.01;97024.44;6347321;28;19931;-65
2022/01/18 14:57:20;;;;;;;;;;;;;;;-8.54;68.42;97025.31;6347048;28;20412;-64
2022/01/18 15:00:27;;;;;;;;;;;;;;;-8.35;68.63;97024.63;6347275;28;19927;-63
2022/01/18 15:03:28;;;;;;;;;;;;;;;-8.53;68.14;97020.22;6346862;28;19919;-64
2022/01/18 15:06:29;;;;;;;;;;;;;;;-8.54;68.63;97025.31;6346374;28;19930;-64
2022/01/18 15:09:33;;;;;;;;;;;;;;;-8.34;67.38;97016.16;6347228;28;19920;-64
2022/01/18 15:12:34;;;;;;;;;;;;;;;-8.48;67.08;97022.84;6345769;28;19989;-64
2022/01/18 15:15:36;;;;;;;;;;;;;;;-8.55;66.23;97015.94;6347272;28;19924;-66
2022/01/18 15:18:39;;;;;;;;;;;;;;;-8.47;65.96;97022.84;6346707;28;20325;-65
2022/01/18 15:21:40;;;;;;;;;;;;;;;-8.51;65.64;97015.16;6347164;28;19928;-64
2022/01/18 15:24:43;;;;;;;;;;;;;;;-8.60;66.13;97029.50;6329229;28;19920;-64
2022/01/18 15:27:44;;;;;;;;;;;;;;;-8.49;65.78;97031.31;6346034;28;19924;-63
2022/01/18 15:30:49;;;;;;;;;;;;;;;-8.58;66.21;97037.16;6346697;28;19924;-63
2022/01/18 15:33:50;;;;;;;;;;;;;;;-8.52;66.81;97041.47;6346796;28;20357;-64
2022/01/18 15:36:55;;;;;;;;;;;;;;;-8.51;66.17;97038.97;6346608;28;19923;-63
2022/01/18 15:40:01;;;;;;;;;;;;;;;-8.43;66.38;97046.72;6346362;28;19930;-64
2022/01/18 15:43:06;;;;;;;;;;;;;;;-8.55;66.64;97056.75;6346638;28;19924;-64
2022/01/18 15:46:08;;;;;;;;;;;;;;;-8.53;66.62;97065.28;6327753;28;20458;-64
2022/01/18 15:49:10;;;;;;;;;;;;;;;-8.49;66.52;97056.81;6345299;28;20033;-64
2022/01/18 15:52:13;;;;;;;;;;;;;;;-8.37;66.54;97065.47;6344793;28;19946;-64
2022/01/18 15:55:16;;;;;;;;;;;;;;;-8.35;66.38;97062.91;6345544;28;19924;-65
2022/01/18 15:58:18;;;;;;;;;;;;;;;-8.29;66.21;97063.00;6346125;28;19931;-65
2022/01/18 16:01:22;;;;;;;;;;;;;;;-8.38;66.21;97067.97;6346479;28;20243;-65
2022/01/18 16:04:23;;;;;;;;;;;;;;;-8.46;66.30;97064.53;6345075;28;19923;-64
2022/01/18 16:07:26;;;;;;;;;;;;;;;-8.43;66.88;97062.03;6346129;28;20316;-64
2022/01/18 16:10:28;;;;;;;;;;;;;;;-8.71;67.18;97068.47;6345389;28;19931;-63
2022/01/18 16:13:29;;;;;;;;;;;;;;;-8.50;67.04;97065.31;6345325;28;19923;-64
2022/01/18 16:16:30;;;;;;;;;;;;;;;-8.70;67.67;97053.16;6345242;28;20399;-64
2022/01/18 16:19:34;;;;;;;;;;;;;;;-8.60;67.55;97067.75;6345984;28;19924;-63
2022/01/18 16:22:37;;;;;;;;;;;;;;;-8.48;67.21;97058.56;6346141;28;20409;-65
2022/01/18 16:25:39;;;;;;;;;;;;;;;-8.60;67.33;97060.13;6351009;28;20509;-63
2022/01/18 16:28:40;;;;;;;;;;;;;;;-8.42;67.44;97059.47;6350411;28;19927;-64
2022/01/18 16:31:42;;;;;;;;;;;;;;;-8.42;67.13;97053.53;6351263;28;20020;-63
2022/01/18 16:34:43;;;;;;;;;;;;;;;-8.38;67.46;97065.44;6351249;28;19930;-64
2022/01/18 16:37:47;;;;;;;;;;;;;;;-8.50;67.47;97067.88;6349863;28;20022;-65
2022/01/18 16:40:48;;;;;;;;;;;;;;;-8.30;67.86;97074.03;6350946;28;19930;-64
2022/01/18 16:43:53;;;;;;;;;;;;;;;-8.29;67.28;97070.66;6350888;28;20404;-64
2022/01/18 16:46:55;;;;;;;;;;;;;;;-8.13;67.63;97072.53;6350804;28;19930;-64
2022/01/18 16:49:59;;;;;;;;;;;;;;;-8.05;67.49;97069.22;6350844;28;20317;-64
2022/01/18 16:53:02;;;;;;;;;;;;;;;-7.92;67.42;97076.19;6350625;28;19924;-64
2022/01/18 16:56:08;;;;;;;;;;;;;;;-7.84;67.77;97074.56;6350533;28;19931;-64
2022/01/18 16:59:12;;;;;;;;;;;;;;;-7.78;68.11;97066.97;6350452;28;19924;-64
2022/01/18 17:02:13;;;;;;;;;;;;;;;-7.74;67.36;97063.59;6350619;28;19924;-64
2022/01/18 17:05:14;;;;;;;;;;;;;;;-7.58;67.66;97071.41;6350321;28;19965;-64
2022/01/18 17:08:17;;;;;;;;;;;;;;;-7.59;67.60;97059.47;6348707;28;19924;-64
2022/01/18 17:11:23;;;;;;;;;;;;;;;-7.49;67.91;97071.50;6350021;28;19923;-64